sensor_id;sensor_type;location;lat;lon;timestamp;pressure;altitude;pressure_sealevel;temperature;humidity
34983;BME280;21187;50.976;13.720;2023-06-19T00:02:09;98067.38;;;22.49;39.41
34983;BME280;21187;50.976;13.720;2023-06-19T00:07:11;98072.91;;;22.49;39.65
34983;BME280;21187;50.976;13.720;2023-06-19T00:12:13;98069.03;;;22.46;39.85
34983;BME280;21187;50.976;13.720;2023-06-19T00:17:15;98069.22;;;22.39;39.93
34983;BME280;21187;50.976;13.720;2023-06-19T00:22:18;98063.25;;;22.24;40.24
34983;BME280;21187;50.976;13.720;2023-06-19T00:27:20;98060.41;;;22.11;40.52
34983;BME280;21187;50.976;13.720;2023-06-19T00:32:22;98067.38;;;21.99;40.61
34983;BME280;21187;50.976;13.720;2023-06-19T00:37:24;98064.75;;;21.92;40.59
34983;BME280;21187;50.976;13.720;2023-06-19T00:42:27;98048.31;;;21.88;40.98
34983;BME280;21187;50.976;13.720;2023-06-19T00:47:30;98057.19;;;21.80;41.00
34983;BME280;21187;50.976;13.720;2023-06-19T00:52:32;98053.72;;;21.75;41.40
34983;BME280;21187;50.976;13.720;2023-06-19T00:57:35;98058.13;;;21.73;41.39
34983;BME280;21187;50.976;13.720;2023-06-19T01:02:38;98050.91;;;21.59;41.48
34983;BME280;21187;50.976;13.720;2023-06-19T01:08:00;98041.19;;;21.54;41.71
34983;BME280;21187;50.976;13.720;2023-06-19T01:18:25;98055.09;;;21.27;42.12
34983;BME280;21187;50.976;13.720;2023-06-19T01:23:28;98054.34;;;21.26;42.34
34983;BME280;21187;50.976;13.720;2023-06-19T01:28:30;98035.50;;;21.25;42.30
34983;BME280;21187;50.976;13.720;2023-06-19T01:33:33;98036.69;;;21.24;42.52
34983;BME280;21187;50.976;13.720;2023-06-19T01:38:36;98028.56;;;21.17;42.59
34983;BME280;21187;50.976;13.720;2023-06-19T01:43:39;98033.78;;;21.11;42.72
34983;BME280;21187;50.976;13.720;2023-06-19T01:48:41;98026.44;;;21.04;42.96
34983;BME280;21187;50.976;13.720;2023-06-19T01:53:44;98023.34;;;21.02;43.05
34983;BME280;21187;50.976;13.720;2023-06-19T01:58:46;98020.25;;;21.00;42.98
34983;BME280;21187;50.976;13.720;2023-06-19T02:03:48;98016.38;;;20.98;43.14
34983;BME280;21187;50.976;13.720;2023-06-19T02:08:50;98012.47;;;20.95;43.21
34983;BME280;21187;50.976;13.720;2023-06-19T02:13:52;98008.16;;;20.94;43.15
34983;BME280;21187;50.976;13.720;2023-06-19T02:18:54;98005.41;;;20.94;43.23
34983;BME280;21187;50.976;13.720;2023-06-19T02:23:57;98006.97;;;20.95;43.46
34983;BME280;21187;50.976;13.720;2023-06-19T02:28:59;98004.72;;;20.90;43.59
34983;BME280;21187;50.976;13.720;2023-06-19T02:34:02;98008.81;;;20.82;43.76
34983;BME280;21187;50.976;13.720;2023-06-19T02:39:04;97989.97;;;20.80;43.77
34983;BME280;21187;50.976;13.720;2023-06-19T02:44:07;97997.00;;;20.81;43.74
34983;BME280;21187;50.976;13.720;2023-06-19T02:49:09;97997.81;;;20.82;43.75
34983;BME280;21187;50.976;13.720;2023-06-19T02:54:11;97987.13;;;20.84;43.79
34983;BME280;21187;50.976;13.720;2023-06-19T02:59:13;97987.50;;;20.86;44.01
34983;BME280;21187;50.976;13.720;2023-06-19T03:04:15;97993.75;;;20.86;44.00
34983;BME280;21187;50.976;13.720;2023-06-19T03:09:17;97995.38;;;20.84;44.08
34983;BME280;21187;50.976;13.720;2023-06-19T03:14:19;97982.84;;;20.83;44.20
34983;BME280;21187;50.976;13.720;2023-06-19T03:19:21;97987.94;;;20.84;44.28
34983;BME280;21187;50.976;13.720;2023-06-19T03:24:24;97978.03;;;20.87;44.30
34983;BME280;21187;50.976;13.720;2023-06-19T03:29:34;97985.00;;;20.91;44.23
34983;BME280;21187;50.976;13.720;2023-06-19T03:34:39;97986.84;;;20.98;44.21
34983;BME280;21187;50.976;13.720;2023-06-19T03:39:43;97980.78;;;21.07;44.31
34983;BME280;21187;50.976;13.720;2023-06-19T03:44:46;97975.91;;;21.15;44.19
34983;BME280;21187;50.976;13.720;2023-06-19T03:49:48;97986.00;;;21.21;44.08
34983;BME280;21187;50.976;13.720;2023-06-19T03:54:50;97978.41;;;21.25;44.25
34983;BME280;21187;50.976;13.720;2023-06-19T03:59:53;97981.88;;;21.30;44.42
34983;BME280;21187;50.976;13.720;2023-06-19T04:04:56;97981.81;;;21.33;44.23
34983;BME280;21187;50.976;13.720;2023-06-19T04:09:58;97974.59;;;21.39;44.33
34983;BME280;21187;50.976;13.720;2023-06-19T04:15:00;97978.38;;;21.45;44.34
34983;BME280;21187;50.976;13.720;2023-06-19T04:20:03;97969.16;;;21.52;44.48
34983;BME280;21187;50.976;13.720;2023-06-19T04:25:13;97979.72;;;21.57;44.70
34983;BME280;21187;50.976;13.720;2023-06-19T04:30:15;97992.22;;;21.62;44.73
34983;BME280;21187;50.976;13.720;2023-06-19T04:35:17;97991.53;;;21.74;44.73
34983;BME280;21187;50.976;13.720;2023-06-19T04:40:20;97989.75;;;21.84;44.85
34983;BME280;21187;50.976;13.720;2023-06-19T04:45:22;97994.63;;;21.93;44.62
34983;BME280;21187;50.976;13.720;2023-06-19T04:50:24;97992.91;;;21.99;44.97
34983;BME280;21187;50.976;13.720;2023-06-19T04:55:26;97988.44;;;22.05;45.39
34983;BME280;21187;50.976;13.720;2023-06-19T05:00:28;97999.66;;;22.15;45.29
34983;BME280;21187;50.976;13.720;2023-06-19T05:05:30;98002.56;;;22.24;45.26
34983;BME280;21187;50.976;13.720;2023-06-19T05:10:32;98003.94;;;22.32;45.41
34983;BME280;21187;50.976;13.720;2023-06-19T05:15:34;98006.53;;;22.39;45.36
34983;BME280;21187;50.976;13.720;2023-06-19T05:20:36;98004.34;;;22.47;45.37
34983;BME280;21187;50.976;13.720;2023-06-19T05:25:38;98012.91;;;22.53;45.42
34983;BME280;21187;50.976;13.720;2023-06-19T05:30:40;98011.94;;;22.59;45.48
34983;BME280;21187;50.976;13.720;2023-06-19T05:35:42;98000.78;;;22.63;45.43
34983;BME280;21187;50.976;13.720;2023-06-19T05:40:45;98007.31;;;22.69;45.32
34983;BME280;21187;50.976;13.720;2023-06-19T05:45:46;98012.69;;;22.76;45.30
34983;BME280;21187;50.976;13.720;2023-06-19T05:50:48;98013.66;;;22.83;45.62
34983;BME280;21187;50.976;13.720;2023-06-19T05:55:50;98020.66;;;22.87;46.00
34983;BME280;21187;50.976;13.720;2023-06-19T06:00:52;98019.00;;;22.90;46.28
34983;BME280;21187;50.976;13.720;2023-06-19T06:05:59;98026.94;;;22.88;46.39
34983;BME280;21187;50.976;13.720;2023-06-19T06:11:04;98031.59;;;22.91;46.18
34983;BME280;21187;50.976;13.720;2023-06-19T06:16:06;98032.28;;;22.95;46.08
34983;BME280;21187;50.976;13.720;2023-06-19T06:21:09;98034.47;;;23.00;46.29
34983;BME280;21187;50.976;13.720;2023-06-19T06:26:11;98039.16;;;23.03;46.23
34983;BME280;21187;50.976;13.720;2023-06-19T06:31:12;98049.31;;;23.06;46.33
34983;BME280;21187;50.976;13.720;2023-06-19T06:36:15;98048.47;;;23.09;46.51
34983;BME280;21187;50.976;13.720;2023-06-19T06:41:35;98051.22;;;23.09;46.59
34983;BME280;21187;50.976;13.720;2023-06-19T06:46:39;98054.56;;;23.17;46.54
34983;BME280;21187;50.976;13.720;2023-06-19T06:51:41;98052.06;;;23.23;46.44
34983;BME280;21187;50.976;13.720;2023-06-19T06:56:42;98057.38;;;23.30;46.39
34983;BME280;21187;50.976;13.720;2023-06-19T07:01:47;98064.22;;;23.38;46.57
34983;BME280;21187;50.976;13.720;2023-06-19T07:06:49;98060.06;;;23.47;46.81
34983;BME280;21187;50.976;13.720;2023-06-19T07:11:51;98067.25;;;23.57;46.44
34983;BME280;21187;50.976;13.720;2023-06-19T07:16:54;98063.06;;;23.65;46.21
34983;BME280;21187;50.976;13.720;2023-06-19T07:21:56;98062.53;;;23.70;45.92
34983;BME280;21187;50.976;13.720;2023-06-19T07:26:58;98052.13;;;23.74;45.89
34983;BME280;21187;50.976;13.720;2023-06-19T07:32:00;98060.53;;;23.84;45.73
34983;BME280;21187;50.976;13.720;2023-06-19T07:37:06;98057.00;;;23.96;45.79
34983;BME280;21187;50.976;13.720;2023-06-19T07:42:08;98065.31;;;24.09;45.94
34983;BME280;21187;50.976;13.720;2023-06-19T07:47:12;98060.09;;;24.24;46.06
34983;BME280;21187;50.976;13.720;2023-06-19T07:52:15;98066.06;;;24.35;46.08
34983;BME280;21187;50.976;13.720;2023-06-19T07:57:17;98072.78;;;24.47;45.87
34983;BME280;21187;50.976;13.720;2023-06-19T08:02:19;98069.19;;;24.59;45.85
34983;BME280;21187;50.976;13.720;2023-06-19T08:07:21;98060.88;;;24.72;45.46
34983;BME280;21187;50.976;13.720;2023-06-19T08:12:23;98066.16;;;24.80;45.29
34983;BME280;21187;50.976;13.720;2023-06-19T08:17:24;98073.03;;;24.88;45.33
34983;BME280;21187;50.976;13.720;2023-06-19T08:22:26;98079.22;;;24.92;45.42
34983;BME280;21187;50.976;13.720;2023-06-19T08:27:28;98078.31;;;24.95;45.57
34983;BME280;21187;50.976;13.720;2023-06-19T08:32:30;98098.16;;;24.94;46.24
34983;BME280;21187;50.976;13.720;2023-06-19T08:37:32;98091.31;;;24.85;46.48
34983;BME280;21187;50.976;13.720;2023-06-19T08:42:35;98089.00;;;24.84;46.96
34983;BME280;21187;50.976;13.720;2023-06-19T08:47:37;98087.44;;;24.83;47.25
34983;BME280;21187;50.976;13.720;2023-06-19T08:52:39;98090.97;;;24.83;47.19
34983;BME280;21187;50.976;13.720;2023-06-19T08:57:42;98091.06;;;24.92;47.57
34983;BME280;21187;50.976;13.720;2023-06-19T09:02:45;98088.34;;;25.02;47.49
34983;BME280;21187;50.976;13.720;2023-06-19T09:08:05;98098.75;;;25.11;47.41
34983;BME280;21187;50.976;13.720;2023-06-19T09:13:11;98100.59;;;25.14;47.41
34983;BME280;21187;50.976;13.720;2023-06-19T09:18:13;98099.84;;;25.13;47.52
34983;BME280;21187;50.976;13.720;2023-06-19T09:23:17;98100.47;;;25.17;47.59
34983;BME280;21187;50.976;13.720;2023-06-19T09:28:28;98088.94;;;25.19;47.20
34983;BME280;21187;50.976;13.720;2023-06-19T09:33:31;98088.41;;;25.11;46.91
34983;BME280;21187;50.976;13.720;2023-06-19T09:38:36;98090.44;;;25.11;46.98
34983;BME280;21187;50.976;13.720;2023-06-19T09:43:47;98093.66;;;25.09;47.37
34983;BME280;21187;50.976;13.720;2023-06-19T09:48:54;98081.94;;;25.05;47.61
34983;BME280;21187;50.976;13.720;2023-06-19T09:54:01;98086.69;;;25.04;48.11
34983;BME280;21187;50.976;13.720;2023-06-19T09:59:05;98094.53;;;25.06;47.92
34983;BME280;21187;50.976;13.720;2023-06-19T10:04:11;98095.19;;;25.10;47.89
34983;BME280;21187;50.976;13.720;2023-06-19T10:09:15;98092.88;;;25.08;47.71
34983;BME280;21187;50.976;13.720;2023-06-19T10:14:21;98090.63;;;25.16;48.14
34983;BME280;21187;50.976;13.720;2023-06-19T10:19:23;98094.03;;;25.20;47.78
34983;BME280;21187;50.976;13.720;2023-06-19T10:24:26;98082.69;;;25.28;47.76
34983;BME280;21187;50.976;13.720;2023-06-19T10:29:51;98070.97;;;25.46;47.53
34983;BME280;21187;50.976;13.720;2023-06-19T10:35:11;98077.53;;;25.61;47.25
34983;BME280;21187;50.976;13.720;2023-06-19T10:40:14;98076.22;;;25.75;46.88
34983;BME280;21187;50.976;13.720;2023-06-19T10:45:16;98067.78;;;25.88;46.99
34983;BME280;21187;50.976;13.720;2023-06-19T10:50:19;98069.69;;;26.00;46.45
34983;BME280;21187;50.976;13.720;2023-06-19T10:55:21;98071.31;;;26.20;46.07
34983;BME280;21187;50.976;13.720;2023-06-19T11:00:26;98054.25;;;26.49;45.25
34983;BME280;21187;50.976;13.720;2023-06-19T11:05:28;98054.16;;;26.90;44.85
34983;BME280;21187;50.976;13.720;2023-06-19T11:10:30;98054.44;;;27.38;43.74
34983;BME280;21187;50.976;13.720;2023-06-19T11:15:33;98039.56;;;27.84;42.89
34983;BME280;21187;50.976;13.720;2023-06-19T11:20:52;98054.06;;;28.31;41.26
34983;BME280;21187;50.976;13.720;2023-06-19T11:26:02;98053.34;;;28.46;40.37
34983;BME280;21187;50.976;13.720;2023-06-19T11:31:04;98063.94;;;28.56;40.52
34983;BME280;21187;50.976;13.720;2023-06-19T11:36:08;98042.28;;;28.76;39.96
34983;BME280;21187;50.976;13.720;2023-06-19T11:41:10;98044.66;;;28.92;39.78
34983;BME280;21187;50.976;13.720;2023-06-19T11:46:13;98045.63;;;29.04;39.36
34983;BME280;21187;50.976;13.720;2023-06-19T11:51:17;98042.00;;;29.13;39.02
34983;BME280;21187;50.976;13.720;2023-06-19T11:56:19;98036.81;;;29.35;38.77
34983;BME280;21187;50.976;13.720;2023-06-19T12:01:21;98033.16;;;29.44;38.24
34983;BME280;21187;50.976;13.720;2023-06-19T12:06:23;98033.84;;;29.54;38.00
34983;BME280;21187;50.976;13.720;2023-06-19T12:11:25;98027.34;;;29.78;36.85
34983;BME280;21187;50.976;13.720;2023-06-19T12:16:27;98028.44;;;30.01;36.53
34983;BME280;21187;50.976;13.720;2023-06-19T12:21:30;98020.66;;;30.26;36.39
34983;BME280;21187;50.976;13.720;2023-06-19T12:26:40;98017.53;;;30.38;35.39
34983;BME280;21187;50.976;13.720;2023-06-19T12:31:43;98007.78;;;30.49;34.90
34983;BME280;21187;50.976;13.720;2023-06-19T12:36:45;98005.59;;;30.59;34.31
34983;BME280;21187;50.976;13.720;2023-06-19T12:41:47;98011.25;;;30.64;33.92
34983;BME280;21187;50.976;13.720;2023-06-19T12:46:49;98011.38;;;30.55;33.63
34983;BME280;21187;50.976;13.720;2023-06-19T12:51:51;97988.97;;;30.49;33.63
34983;BME280;21187;50.976;13.720;2023-06-19T12:56:53;97979.56;;;30.47;33.28
34983;BME280;21187;50.976;13.720;2023-06-19T13:01:56;97981.09;;;30.48;33.16
34983;BME280;21187;50.976;13.720;2023-06-19T13:06:58;97982.91;;;30.51;33.20
34983;BME280;21187;50.976;13.720;2023-06-19T13:12:00;97976.91;;;30.58;33.14
34983;BME280;21187;50.976;13.720;2023-06-19T13:17:02;97975.19;;;30.66;33.27
34983;BME280;21187;50.976;13.720;2023-06-19T13:22:04;97977.28;;;30.72;33.14
34983;BME280;21187;50.976;13.720;2023-06-19T13:27:07;97971.69;;;30.72;33.43
34983;BME280;21187;50.976;13.720;2023-06-19T13:32:09;97969.06;;;30.89;33.36
34983;BME280;21187;50.976;13.720;2023-06-19T13:37:11;97963.16;;;31.07;32.91
34983;BME280;21187;50.976;13.720;2023-06-19T13:42:13;97954.63;;;31.22;33.13
34983;BME280;21187;50.976;13.720;2023-06-19T13:47:14;97966.63;;;31.28;32.57
34983;BME280;21187;50.976;13.720;2023-06-19T13:52:17;97963.34;;;31.30;32.74
34983;BME280;21187;50.976;13.720;2023-06-19T13:57:18;97960.66;;;31.47;32.55
34983;BME280;21187;50.976;13.720;2023-06-19T14:02:20;97958.50;;;31.62;31.86
34983;BME280;21187;50.976;13.720;2023-06-19T14:07:22;97962.06;;;31.63;31.69
34983;BME280;21187;50.976;13.720;2023-06-19T14:12:24;97963.72;;;31.49;31.35
34983;BME280;21187;50.976;13.720;2023-06-19T14:17:26;97955.50;;;31.40;31.53
34983;BME280;21187;50.976;13.720;2023-06-19T14:22:28;97944.63;;;31.47;31.70
34983;BME280;21187;50.976;13.720;2023-06-19T14:27:30;97949.00;;;31.54;31.54
34983;BME280;21187;50.976;13.720;2023-06-19T14:32:32;97948.47;;;31.50;31.46
34983;BME280;21187;50.976;13.720;2023-06-19T14:37:34;97954.19;;;31.61;31.25
34983;BME280;21187;50.976;13.720;2023-06-19T14:42:36;97959.88;;;31.46;30.76
34983;BME280;21187;50.976;13.720;2023-06-19T14:47:38;97954.53;;;31.43;31.19
34983;BME280;21187;50.976;13.720;2023-06-19T14:52:40;97945.84;;;31.41;30.81
34983;BME280;21187;50.976;13.720;2023-06-19T14:57:42;97950.47;;;31.44;30.79
34983;BME280;21187;50.976;13.720;2023-06-19T15:02:44;97951.06;;;31.59;31.02
34983;BME280;21187;50.976;13.720;2023-06-19T15:07:46;97949.09;;;31.65;31.28
34983;BME280;21187;50.976;13.720;2023-06-19T15:12:48;97961.59;;;31.70;31.56
34983;BME280;21187;50.976;13.720;2023-06-19T15:17:50;97957.59;;;31.82;30.92
34983;BME280;21187;50.976;13.720;2023-06-19T15:22:52;97952.22;;;31.79;30.47
34983;BME280;21187;50.976;13.720;2023-06-19T15:27:54;97958.34;;;31.83;30.38
34983;BME280;21187;50.976;13.720;2023-06-19T15:32:56;97955.34;;;31.92;30.56
34983;BME280;21187;50.976;13.720;2023-06-19T15:37:58;97956.44;;;32.00;30.24
34983;BME280;21187;50.976;13.720;2023-06-19T15:43:01;97953.28;;;31.87;29.96
34983;BME280;21187;50.976;13.720;2023-06-19T15:48:03;97953.25;;;31.76;29.85
34983;BME280;21187;50.976;13.720;2023-06-19T15:53:05;97954.28;;;31.78;30.42
34983;BME280;21187;50.976;13.720;2023-06-19T15:58:10;97941.34;;;31.86;30.24
34983;BME280;21187;50.976;13.720;2023-06-19T16:03:12;97946.44;;;31.94;29.87
34983;BME280;21187;50.976;13.720;2023-06-19T16:08:14;97945.97;;;32.01;29.80
34983;BME280;21187;50.976;13.720;2023-06-19T16:13:16;97942.69;;;32.02;29.51
34983;BME280;21187;50.976;13.720;2023-06-19T16:18:18;97939.13;;;32.02;29.77
34983;BME280;21187;50.976;13.720;2023-06-19T16:23:20;97938.09;;;31.99;29.37
34983;BME280;21187;50.976;13.720;2023-06-19T16:28:23;97939.34;;;31.93;29.52
34983;BME280;21187;50.976;13.720;2023-06-19T16:33:25;97943.09;;;31.84;29.47
34983;BME280;21187;50.976;13.720;2023-06-19T16:38:26;97944.34;;;31.77;29.37
34983;BME280;21187;50.976;13.720;2023-06-19T16:43:28;97942.78;;;31.71;29.48
34983;BME280;21187;50.976;13.720;2023-06-19T16:48:30;97935.38;;;31.67;29.38
34983;BME280;21187;50.976;13.720;2023-06-19T16:53:32;97941.97;;;31.64;29.68
34983;BME280;21187;50.976;13.720;2023-06-19T16:58:34;97936.81;;;31.57;29.41
34983;BME280;21187;50.976;13.720;2023-06-19T17:03:36;97950.28;;;31.53;29.89
34983;BME280;21187;50.976;13.720;2023-06-19T17:08:38;97958.59;;;31.42;29.75
34983;BME280;21187;50.976;13.720;2023-06-19T17:13:40;97946.31;;;31.33;29.68
34983;BME280;21187;50.976;13.720;2023-06-19T17:18:42;97954.91;;;31.24;29.87
34983;BME280;21187;50.976;13.720;2023-06-19T17:23:44;97956.56;;;31.10;30.16
34983;BME280;21187;50.976;13.720;2023-06-19T17:28:47;97957.94;;;30.94;30.13
34983;BME280;21187;50.976;13.720;2023-06-19T17:33:49;97963.97;;;30.87;30.67
34983;BME280;21187;50.976;13.720;2023-06-19T17:38:51;97963.81;;;30.70;30.76
34983;BME280;21187;50.976;13.720;2023-06-19T17:43:52;97959.34;;;30.58;31.73
34983;BME280;21187;50.976;13.720;2023-06-19T17:48:54;97964.13;;;30.51;31.87
34983;BME280;21187;50.976;13.720;2023-06-19T17:53:57;97961.78;;;30.50;32.11
34983;BME280;21187;50.976;13.720;2023-06-19T17:58:59;97955.94;;;30.48;32.10
34983;BME280;21187;50.976;13.720;2023-06-19T18:04:01;97959.41;;;30.43;32.08
34983;BME280;21187;50.976;13.720;2023-06-19T18:09:04;97965.69;;;30.37;32.46
34983;BME280;21187;50.976;13.720;2023-06-19T18:14:09;97961.50;;;30.27;32.34
34983;BME280;21187;50.976;13.720;2023-06-19T18:19:11;97972.56;;;30.16;32.62
34983;BME280;21187;50.976;13.720;2023-06-19T18:24:12;97965.22;;;29.98;32.69
34983;BME280;21187;50.976;13.720;2023-06-19T18:29:15;97978.06;;;29.75;33.27
34983;BME280;21187;50.976;13.720;2023-06-19T18:34:18;97975.38;;;29.65;33.07
34983;BME280;21187;50.976;13.720;2023-06-19T18:39:21;97975.25;;;29.54;33.50
34983;BME280;21187;50.976;13.720;2023-06-19T18:44:24;97980.75;;;29.33;34.14
34983;BME280;21187;50.976;13.720;2023-06-19T18:49:26;97982.56;;;29.07;34.69
34983;BME280;21187;50.976;13.720;2023-06-19T18:54:32;97989.25;;;28.85;34.96
34983;BME280;21187;50.976;13.720;2023-06-19T18:59:34;97989.25;;;28.70;34.69
34983;BME280;21187;50.976;13.720;2023-06-19T19:04:37;97993.06;;;28.58;35.08
34983;BME280;21187;50.976;13.720;2023-06-19T19:09:41;97991.09;;;28.49;35.00
34983;BME280;21187;50.976;13.720;2023-06-19T19:14:44;97997.25;;;28.53;35.25
34983;BME280;21187;50.976;13.720;2023-06-19T19:19:46;98000.53;;;28.51;35.12
34983;BME280;21187;50.976;13.720;2023-06-19T19:24:49;98008.78;;;28.46;35.46
34983;BME280;21187;50.976;13.720;2023-06-19T19:29:51;98014.41;;;28.36;35.75
34983;BME280;21187;50.976;13.720;2023-06-19T19:34:54;98019.75;;;28.25;35.67
34983;BME280;21187;50.976;13.720;2023-06-19T19:39:58;98008.03;;;28.21;35.47
34983;BME280;21187;50.976;13.720;2023-06-19T19:45:00;98018.25;;;28.15;35.72
34983;BME280;21187;50.976;13.720;2023-06-19T19:50:07;98019.38;;;28.08;35.75
34983;BME280;21187;50.976;13.720;2023-06-19T19:55:09;98022.66;;;27.97;36.07
34983;BME280;21187;50.976;13.720;2023-06-19T20:00:13;98023.66;;;27.85;36.36
34983;BME280;21187;50.976;13.720;2023-06-19T20:05:16;98030.66;;;27.71;36.34
34983;BME280;21187;50.976;13.720;2023-06-19T20:10:18;98035.19;;;27.59;36.42
34983;BME280;21187;50.976;13.720;2023-06-19T20:15:19;98036.31;;;27.52;36.98
34983;BME280;21187;50.976;13.720;2023-06-19T20:20:21;98037.56;;;27.42;36.94
34983;BME280;21187;50.976;13.720;2023-06-19T20:25:24;98039.88;;;27.34;37.13
34983;BME280;21187;50.976;13.720;2023-06-19T20:30:26;98046.72;;;27.24;37.61
34983;BME280;21187;50.976;13.720;2023-06-19T20:35:28;98048.25;;;27.06;37.74
34983;BME280;21187;50.976;13.720;2023-06-19T20:40:30;98049.22;;;26.94;37.85
34983;BME280;21187;50.976;13.720;2023-06-19T20:45:32;98049.69;;;26.83;38.05
34983;BME280;21187;50.976;13.720;2023-06-19T20:50:34;98043.94;;;26.78;38.15
34983;BME280;21187;50.976;13.720;2023-06-19T20:55:36;98046.91;;;26.74;38.43
34983;BME280;21187;50.976;13.720;2023-06-19T21:00:38;98046.41;;;26.66;38.45
34983;BME280;21187;50.976;13.720;2023-06-19T21:05:40;98048.56;;;26.53;38.87
34983;BME280;21187;50.976;13.720;2023-06-19T21:10:42;98048.84;;;26.46;38.90
34983;BME280;21187;50.976;13.720;2023-06-19T21:15:44;98050.06;;;26.45;38.80
34983;BME280;21187;50.976;13.720;2023-06-19T21:20:46;98053.31;;;26.52;39.19
34983;BME280;21187;50.976;13.720;2023-06-19T21:25:49;98053.19;;;26.56;39.12
34983;BME280;21187;50.976;13.720;2023-06-19T21:30:51;98062.13;;;26.51;39.21
34983;BME280;21187;50.976;13.720;2023-06-19T21:35:53;98060.56;;;26.50;39.11
34983;BME280;21187;50.976;13.720;2023-06-19T21:40:55;98065.50;;;26.46;39.63
34983;BME280;21187;50.976;13.720;2023-06-19T21:45:57;98061.03;;;26.39;39.58
34983;BME280;21187;50.976;13.720;2023-06-19T21:51:00;98054.06;;;26.25;40.20
34983;BME280;21187;50.976;13.720;2023-06-19T21:56:02;98050.31;;;26.10;40.20
34983;BME280;21187;50.976;13.720;2023-06-19T22:01:05;98062.25;;;25.97;40.78
34983;BME280;21187;50.976;13.720;2023-06-19T22:06:07;98063.03;;;25.88;41.03
34983;BME280;21187;50.976;13.720;2023-06-19T22:11:09;98058.53;;;25.82;41.01
34983;BME280;21187;50.976;13.720;2023-06-19T22:16:11;98060.34;;;25.75;41.17
34983;BME280;21187;50.976;13.720;2023-06-19T22:21:13;98060.63;;;25.68;41.31
34983;BME280;21187;50.976;13.720;2023-06-19T22:26:14;98057.47;;;25.57;41.41
34983;BME280;21187;50.976;13.720;2023-06-19T22:31:16;98062.34;;;25.44;41.67
34983;BME280;21187;50.976;13.720;2023-06-19T22:36:18;98055.53;;;25.35;42.01
34983;BME280;21187;50.976;13.720;2023-06-19T22:41:20;98054.66;;;25.25;41.87
34983;BME280;21187;50.976;13.720;2023-06-19T22:46:22;98062.44;;;25.18;42.45
34983;BME280;21187;50.976;13.720;2023-06-19T22:51:24;98057.94;;;25.11;42.43
34983;BME280;21187;50.976;13.720;2023-06-19T22:56:26;98070.84;;;25.05;42.39
34983;BME280;21187;50.976;13.720;2023-06-19T23:01:28;98073.84;;;24.98;42.24
34983;BME280;21187;50.976;13.720;2023-06-19T23:06:32;98067.47;;;24.88;42.75
34983;BME280;21187;50.976;13.720;2023-06-19T23:11:44;98074.72;;;24.72;42.82
34983;BME280;21187;50.976;13.720;2023-06-19T23:16:49;98078.59;;;24.62;43.30
34983;BME280;21187;50.976;13.720;2023-06-19T23:21:51;98072.41;;;24.58;43.30
34983;BME280;21187;50.976;13.720;2023-06-19T23:26:54;98070.00;;;24.60;43.41
34983;BME280;21187;50.976;13.720;2023-06-19T23:31:56;98077.94;;;24.58;43.47
34983;BME280;21187;50.976;13.720;2023-06-19T23:37:00;98063.69;;;24.47;43.27
34983;BME280;21187;50.976;13.720;2023-06-19T23:42:02;98062.94;;;24.33;43.71
34983;BME280;21187;50.976;13.720;2023-06-19T23:47:05;98072.06;;;24.21;44.40
34983;BME280;21187;50.976;13.720;2023-06-19T23:52:07;98071.94;;;24.12;44.31
34983;BME280;21187;50.976;13.720;2023-06-19T23:57:09;98079.25;;;24.05;44.45
